sensor_id;sensor_type;location;lat;lon;timestamp;pressure;altitude;pressure_sealevel;temperature;humidity
10474;BME280;5284;50.446;7.904;2023-03-01T00:04:07;99534.03;;;-0.82;100.00
10474;BME280;5284;50.446;7.904;2023-03-01T00:09:11;99545.31;;;-0.80;100.00
10474;BME280;5284;50.446;7.904;2023-03-01T00:14:14;99536.81;;;-0.89;100.00
10474;BME280;5284;50.446;7.904;2023-03-01T00:19:19;99536.09;;;-0.94;100.00
10474;BME280;5284;50.446;7.904;2023-03-01T00:24:24;99530.97;;;-0.99;100.00
10474;BME280;5284;50.446;7.904;2023-03-01T00:29:27;99529.19;;;-0.97;100.00
10474;BME280;5284;50.446;7.904;2023-03-01T00:34:30;99532.72;;;-0.99;100.00
10474;BME280;5284;50.446;7.904;2023-03-01T00:39:35;99525.81;;;-1.02;100.00
10474;BME280;5284;50.446;7.904;2023-03-01T00:44:38;99517.34;;;-1.13;100.00
10474;BME280;5284;50.446;7.904;2023-03-01T00:49:40;99524.34;;;-1.13;100.00
10474;BME280;5284;50.446;7.904;2023-03-01T00:54:45;99514.13;;;-1.24;100.00
10474;BME280;5284;50.446;7.904;2023-03-01T00:59:48;99512.56;;;-1.32;100.00
10474;BME280;5284;50.446;7.904;2023-03-01T01:04:51;99515.34;;;-1.40;100.00
10474;BME280;5284;50.446;7.904;2023-03-01T01:09:56;99512.03;;;-1.48;100.00
10474;BME280;5284;50.446;7.904;2023-03-01T01:14:59;99502.47;;;-1.49;100.00
10474;BME280;5284;50.446;7.904;2023-03-01T01:20:02;99506.72;;;-1.43;100.00
10474;BME280;5284;50.446;7.904;2023-03-01T01:25:08;99501.50;;;-1.45;100.00
10474;BME280;5284;50.446;7.904;2023-03-01T01:30:12;99500.66;;;-1.45;100.00
10474;BME280;5284;50.446;7.904;2023-03-01T01:35:15;99498.06;;;-1.47;100.00
10474;BME280;5284;50.446;7.904;2023-03-01T01:40:19;99496.28;;;-1.45;100.00
10474;BME280;5284;50.446;7.904;2023-03-01T01:45:32;99486.72;;;-1.46;100.00
10474;BME280;5284;50.446;7.904;2023-03-01T01:50:39;99495.44;;;-1.45;100.00
10474;BME280;5284;50.446;7.904;2023-03-01T01:55:46;99497.94;;;-1.41;100.00
10474;BME280;5284;50.446;7.904;2023-03-01T02:00:50;99477.97;;;-1.45;100.00
10474;BME280;5284;50.446;7.904;2023-03-01T02:05:56;99472.88;;;-1.49;100.00
10474;BME280;5284;50.446;7.904;2023-03-01T02:11:03;99462.28;;;-1.45;100.00
10474;BME280;5284;50.446;7.904;2023-03-01T02:16:09;99459.78;;;-1.49;100.00
10474;BME280;5284;50.446;7.904;2023-03-01T02:21:30;99461.59;;;-1.51;100.00
10474;BME280;5284;50.446;7.904;2023-03-01T02:26:42;99465.41;;;-1.65;100.00
10474;BME280;5284;50.446;7.904;2023-03-01T02:31:50;99466.53;;;-1.77;100.00
10474;BME280;5284;50.446;7.904;2023-03-01T02:36:55;99466.75;;;-1.87;100.00
10474;BME280;5284;50.446;7.904;2023-03-01T02:41:59;99454.72;;;-1.96;100.00
10474;BME280;5284;50.446;7.904;2023-03-01T02:47:05;99444.13;;;-1.90;100.00
10474;BME280;5284;50.446;7.904;2023-03-01T02:52:37;99445.03;;;-1.91;100.00
10474;BME280;5284;50.446;7.904;2023-03-01T02:57:47;99426.94;;;-2.00;100.00
10474;BME280;5284;50.446;7.904;2023-03-01T03:02:54;99447.03;;;-2.02;100.00
10474;BME280;5284;50.446;7.904;2023-03-01T03:08:00;99432.44;;;-2.12;100.00
10474;BME280;5284;50.446;7.904;2023-03-01T03:13:08;99430.59;;;-2.08;100.00
10474;BME280;5284;50.446;7.904;2023-03-01T03:18:14;99422.06;;;-2.16;100.00
10474;BME280;5284;50.446;7.904;2023-03-01T03:23:17;99418.72;;;-2.23;100.00
10474;BME280;5284;50.446;7.904;2023-03-01T03:28:20;99407.50;;;-2.26;100.00
10474;BME280;5284;50.446;7.904;2023-03-01T03:33:25;99395.41;;;-2.30;100.00
10474;BME280;5284;50.446;7.904;2023-03-01T03:38:28;99390.09;;;-2.27;100.00
10474;BME280;5284;50.446;7.904;2023-03-01T03:43:32;99383.94;;;-2.23;100.00
10474;BME280;5284;50.446;7.904;2023-03-01T03:48:38;99370.94;;;-2.26;100.00
10474;BME280;5284;50.446;7.904;2023-03-01T03:53:42;99367.81;;;-2.43;100.00
10474;BME280;5284;50.446;7.904;2023-03-01T03:58:45;99366.41;;;-2.59;100.00
10474;BME280;5284;50.446;7.904;2023-03-01T04:03:49;99370.16;;;-2.74;100.00
10474;BME280;5284;50.446;7.904;2023-03-01T04:08:55;99375.53;;;-2.81;100.00
10474;BME280;5284;50.446;7.904;2023-03-01T04:13:59;99375.59;;;-2.84;100.00
10474;BME280;5284;50.446;7.904;2023-03-01T04:19:04;99387.91;;;-2.92;100.00
10474;BME280;5284;50.446;7.904;2023-03-01T04:24:07;99381.81;;;-2.93;100.00
10474;BME280;5284;50.446;7.904;2023-03-01T04:29:11;99381.88;;;-2.94;100.00
10474;BME280;5284;50.446;7.904;2023-03-01T04:34:15;99383.53;;;-2.92;100.00
10474;BME280;5284;50.446;7.904;2023-03-01T04:39:18;99379.97;;;-2.86;100.00
10474;BME280;5284;50.446;7.904;2023-03-01T04:44:21;99376.28;;;-2.75;100.00
10474;BME280;5284;50.446;7.904;2023-03-01T04:49:25;99377.09;;;-2.73;100.00
10474;BME280;5284;50.446;7.904;2023-03-01T04:54:29;99381.44;;;-2.70;100.00
10474;BME280;5284;50.446;7.904;2023-03-01T04:59:32;99383.97;;;-2.67;100.00
10474;BME280;5284;50.446;7.904;2023-03-01T05:04:36;99376.28;;;-2.75;100.00
10474;BME280;5284;50.446;7.904;2023-03-01T05:09:39;99377.22;;;-2.79;100.00
10474;BME280;5284;50.446;7.904;2023-03-01T05:14:42;99373.81;;;-2.82;100.00
10474;BME280;5284;50.446;7.904;2023-03-01T05:19:46;99371.19;;;-2.81;100.00
10474;BME280;5284;50.446;7.904;2023-03-01T05:24:49;99362.59;;;-2.86;100.00
10474;BME280;5284;50.446;7.904;2023-03-01T05:29:52;99364.38;;;-2.88;100.00
10474;BME280;5284;50.446;7.904;2023-03-01T05:34:57;99361.72;;;-2.86;100.00
10474;BME280;5284;50.446;7.904;2023-03-01T05:40:00;99362.66;;;-2.89;100.00
10474;BME280;5284;50.446;7.904;2023-03-01T05:45:04;99366.91;;;-2.85;100.00
10474;BME280;5284;50.446;7.904;2023-03-01T05:50:15;99363.44;;;-2.85;100.00
10474;BME280;5284;50.446;7.904;2023-03-01T05:55:21;99366.97;;;-2.88;100.00
10474;BME280;5284;50.446;7.904;2023-03-01T06:00:25;99359.34;;;-2.98;100.00
10474;BME280;5284;50.446;7.904;2023-03-01T06:05:31;99352.63;;;-3.11;100.00
10474;BME280;5284;50.446;7.904;2023-03-01T06:10:34;99350.88;;;-3.10;100.00
10474;BME280;5284;50.446;7.904;2023-03-01T06:15:37;99334.34;;;-3.09;100.00
10474;BME280;5284;50.446;7.904;2023-03-01T06:20:42;99345.69;;;-3.12;100.00
10474;BME280;5284;50.446;7.904;2023-03-01T06:25:45;99342.00;;;-3.01;100.00
10474;BME280;5284;50.446;7.904;2023-03-01T06:30:49;99340.03;;;-2.88;100.00
10474;BME280;5284;50.446;7.904;2023-03-01T06:35:55;99346.81;;;-2.81;100.00
10474;BME280;5284;50.446;7.904;2023-03-01T06:40:59;99351.66;;;-2.62;100.00
10474;BME280;5284;50.446;7.904;2023-03-01T06:46:06;99350.63;;;-2.53;100.00
10474;BME280;5284;50.446;7.904;2023-03-01T06:51:11;99353.75;;;-2.36;100.00
10474;BME280;5284;50.446;7.904;2023-03-01T06:56:13;99347.38;;;-2.25;100.00
10474;BME280;5284;50.446;7.904;2023-03-01T07:01:16;99350.56;;;-2.11;100.00
10474;BME280;5284;50.446;7.904;2023-03-01T07:06:23;99351.19;;;-2.00;100.00
10474;BME280;5284;50.446;7.904;2023-03-01T07:11:26;99345.56;;;-1.83;100.00
10474;BME280;5284;50.446;7.904;2023-03-01T07:16:29;99343.63;;;-1.75;100.00
10474;BME280;5284;50.446;7.904;2023-03-01T07:21:34;99336.13;;;-1.54;100.00
10474;BME280;5284;50.446;7.904;2023-03-01T07:26:37;99327.75;;;-1.32;100.00
10474;BME280;5284;50.446;7.904;2023-03-01T07:31:40;99337.03;;;-0.88;100.00
10474;BME280;5284;50.446;7.904;2023-03-01T07:36:44;99328.09;;;-0.49;100.00
10474;BME280;5284;50.446;7.904;2023-03-01T07:41:47;99334.22;;;-0.21;100.00
10474;BME280;5284;50.446;7.904;2023-03-01T07:46:55;99327.63;;;0.22;100.00
10474;BME280;5284;50.446;7.904;2023-03-01T07:52:04;99334.75;;;0.44;100.00
10474;BME280;5284;50.446;7.904;2023-03-01T07:57:08;99330.06;;;1.06;100.00
10474;BME280;5284;50.446;7.904;2023-03-01T08:02:10;99328.75;;;1.17;99.66
10474;BME280;5284;50.446;7.904;2023-03-01T08:07:16;99325.63;;;1.55;98.63
10474;BME280;5284;50.446;7.904;2023-03-01T08:12:18;99322.03;;;1.80;97.89
10474;BME280;5284;50.446;7.904;2023-03-01T08:17:21;99312.72;;;1.93;94.54
10474;BME280;5284;50.446;7.904;2023-03-01T08:22:26;99320.81;;;1.89;92.02
10474;BME280;5284;50.446;7.904;2023-03-01T08:27:28;99320.59;;;2.38;92.47
10474;BME280;5284;50.446;7.904;2023-03-01T08:32:35;99324.69;;;2.45;87.98
10474;BME280;5284;50.446;7.904;2023-03-01T08:37:40;99324.16;;;2.58;87.85
10474;BME280;5284;50.446;7.904;2023-03-01T08:42:43;99324.56;;;2.48;88.27
10474;BME280;5284;50.446;7.904;2023-03-01T08:47:47;99323.06;;;2.42;86.35
10474;BME280;5284;50.446;7.904;2023-03-01T08:52:51;99315.72;;;2.50;85.47
10474;BME280;5284;50.446;7.904;2023-03-01T08:57:55;99312.84;;;2.35;85.42
10474;BME280;5284;50.446;7.904;2023-03-01T09:03:00;99299.97;;;2.49;86.18
10474;BME280;5284;50.446;7.904;2023-03-01T09:08:04;99302.47;;;2.52;84.79
10474;BME280;5284;50.446;7.904;2023-03-01T09:13:09;99299.75;;;2.75;82.35
10474;BME280;5284;50.446;7.904;2023-03-01T09:18:12;99291.06;;;3.12;81.00
10474;BME280;5284;50.446;7.904;2023-03-01T09:23:16;99301.75;;;2.90;82.50
10474;BME280;5284;50.446;7.904;2023-03-01T09:28:19;99288.84;;;3.03;79.23
10474;BME280;5284;50.446;7.904;2023-03-01T09:33:32;99300.69;;;3.33;78.14
10474;BME280;5284;50.446;7.904;2023-03-01T09:38:36;99286.78;;;3.30;75.37
10474;BME280;5284;50.446;7.904;2023-03-01T09:43:43;99290.03;;;3.55;75.08
10474;BME280;5284;50.446;7.904;2023-03-01T09:48:50;99282.94;;;3.75;71.19
10474;BME280;5284;50.446;7.904;2023-03-01T09:53:57;99282.63;;;3.63;71.29
10474;BME280;5284;50.446;7.904;2023-03-01T09:59:08;99278.53;;;4.13;70.43
10474;BME280;5284;50.446;7.904;2023-03-01T10:04:28;99267.84;;;4.33;68.60
10474;BME280;5284;50.446;7.904;2023-03-01T10:09:34;99266.75;;;4.37;67.73
10474;BME280;5284;50.446;7.904;2023-03-01T10:14:44;99263.28;;;4.53;66.63
10474;BME280;5284;50.446;7.904;2023-03-01T10:19:51;99255.81;;;4.79;64.14
10474;BME280;5284;50.446;7.904;2023-03-01T10:24:57;99235.75;;;5.25;65.73
10474;BME280;5284;50.446;7.904;2023-03-01T10:30:06;99218.75;;;5.78;63.41
10474;BME280;5284;50.446;7.904;2023-03-01T10:35:18;99214.31;;;5.79;62.03
10474;BME280;5284;50.446;7.904;2023-03-01T10:40:23;99229.44;;;5.92;60.72
10474;BME280;5284;50.446;7.904;2023-03-01T10:45:31;99229.44;;;6.23;60.69
10474;BME280;5284;50.446;7.904;2023-03-01T10:50:38;99222.00;;;6.14;59.31
10474;BME280;5284;50.446;7.904;2023-03-01T10:55:45;99226.63;;;6.55;59.66
10474;BME280;5284;50.446;7.904;2023-03-01T11:00:50;99209.31;;;6.93;57.96
10474;BME280;5284;50.446;7.904;2023-03-01T11:06:03;99207.47;;;7.09;57.99
10474;BME280;5284;50.446;7.904;2023-03-01T11:11:25;99205.78;;;7.36;56.96
10474;BME280;5284;50.446;7.904;2023-03-01T11:16:33;99199.63;;;7.22;56.99
10474;BME280;5284;50.446;7.904;2023-03-01T11:21:36;99196.56;;;7.69;55.83
10474;BME280;5284;50.446;7.904;2023-03-01T11:26:46;99180.53;;;7.85;54.42
10474;BME280;5284;50.446;7.904;2023-03-01T11:31:50;99178.19;;;8.07;53.27
10474;BME280;5284;50.446;7.904;2023-03-01T11:36:59;99159.63;;;8.07;54.01
10474;BME280;5284;50.446;7.904;2023-03-01T11:42:11;99152.91;;;8.79;52.57
10474;BME280;5284;50.446;7.904;2023-03-01T11:47:42;99152.31;;;8.88;51.89
10474;BME280;5284;50.446;7.904;2023-03-01T11:58:28;99145.25;;;9.62;49.73
10474;BME280;5284;50.446;7.904;2023-03-01T12:03:47;99139.34;;;9.69;48.21
10474;BME280;5284;50.446;7.904;2023-03-01T12:09:05;99129.78;;;10.26;48.29
10474;BME280;5284;50.446;7.904;2023-03-01T12:14:31;99127.00;;;9.68;47.34
10474;BME280;5284;50.446;7.904;2023-03-01T12:19:52;99111.44;;;9.98;48.54
10474;BME280;5284;50.446;7.904;2023-03-01T12:30:45;99107.38;;;11.19;45.12
10474;BME280;5284;50.446;7.904;2023-03-01T12:36:27;99093.91;;;11.54;43.38
10474;BME280;5284;50.446;7.904;2023-03-01T12:41:44;99082.00;;;12.53;43.09
10474;BME280;5284;50.446;7.904;2023-03-01T12:47:02;99073.72;;;13.27;43.53
10474;BME280;5284;50.446;7.904;2023-03-01T12:52:14;99065.03;;;13.35;40.61
10474;BME280;5284;50.446;7.904;2023-03-01T12:57:25;99063.19;;;13.74;42.93
10474;BME280;5284;50.446;7.904;2023-03-01T13:02:45;99054.09;;;14.05;39.09
10474;BME280;5284;50.446;7.904;2023-03-01T13:07:56;99051.53;;;13.46;40.38
10474;BME280;5284;50.446;7.904;2023-03-01T13:13:14;99027.41;;;12.24;41.80
10474;BME280;5284;50.446;7.904;2023-03-01T13:18:29;99025.25;;;11.12;44.02
10474;BME280;5284;50.446;7.904;2023-03-01T13:23:35;99024.03;;;11.16;44.55
10474;BME280;5284;50.446;7.904;2023-03-01T13:28:50;99021.72;;;9.99;44.92
10474;BME280;5284;50.446;7.904;2023-03-01T13:33:56;99041.06;;;9.18;45.64
10474;BME280;5284;50.446;7.904;2023-03-01T13:39:01;99032.31;;;9.28;44.94
10474;BME280;5284;50.446;7.904;2023-03-01T13:44:12;99031.25;;;8.58;45.87
10474;BME280;5284;50.446;7.904;2023-03-01T13:49:19;99031.25;;;8.70;48.13
10474;BME280;5284;50.446;7.904;2023-03-01T13:54:24;99025.84;;;8.47;47.42
10474;BME280;5284;50.446;7.904;2023-03-01T13:59:29;99020.94;;;8.53;46.60
10474;BME280;5284;50.446;7.904;2023-03-01T14:04:34;99003.00;;;8.05;47.76
10474;BME280;5284;50.446;7.904;2023-03-01T14:09:40;99006.47;;;8.20;48.46
10474;BME280;5284;50.446;7.904;2023-03-01T14:14:48;99002.88;;;8.46;49.37
10474;BME280;5284;50.446;7.904;2023-03-01T14:19:58;99003.72;;;8.21;47.08
10474;BME280;5284;50.446;7.904;2023-03-01T14:25:04;98995.44;;;7.99;47.49
10474;BME280;5284;50.446;7.904;2023-03-01T14:30:12;98990.44;;;7.95;48.42
10474;BME280;5284;50.446;7.904;2023-03-01T14:35:21;98996.44;;;8.11;48.38
10474;BME280;5284;50.446;7.904;2023-03-01T14:40:28;98989.28;;;7.86;48.27
10474;BME280;5284;50.446;7.904;2023-03-01T14:45:31;98989.63;;;8.07;48.72
10474;BME280;5284;50.446;7.904;2023-03-01T14:50:40;98985.38;;;8.04;47.78
10474;BME280;5284;50.446;7.904;2023-03-01T14:55:46;98980.16;;;8.15;48.59
10474;BME280;5284;50.446;7.904;2023-03-01T15:00:52;98970.69;;;8.11;47.68
10474;BME280;5284;50.446;7.904;2023-03-01T15:05:58;98974.75;;;8.04;47.65
10474;BME280;5284;50.446;7.904;2023-03-01T15:11:05;98964.72;;;7.83;47.19
10474;BME280;5284;50.446;7.904;2023-03-01T15:16:11;98952.19;;;7.85;47.87
10474;BME280;5284;50.446;7.904;2023-03-01T15:21:19;98948.31;;;7.64;47.78
10474;BME280;5284;50.446;7.904;2023-03-01T15:26:26;98953.63;;;7.64;47.94
10474;BME280;5284;50.446;7.904;2023-03-01T15:31:34;98940.25;;;7.65;48.12
10474;BME280;5284;50.446;7.904;2023-03-01T15:36:45;98935.91;;;7.64;47.79
10474;BME280;5284;50.446;7.904;2023-03-01T15:41:51;98933.63;;;7.46;47.64
10474;BME280;5284;50.446;7.904;2023-03-01T15:46:55;98931.56;;;7.63;48.83
10474;BME280;5284;50.446;7.904;2023-03-01T15:51:59;98933.72;;;7.45;48.33
10474;BME280;5284;50.446;7.904;2023-03-01T15:57:02;98927.69;;;7.16;48.57
10474;BME280;5284;50.446;7.904;2023-03-01T16:02:08;98932.09;;;7.03;48.87
10474;BME280;5284;50.446;7.904;2023-03-01T16:07:13;98934.56;;;6.92;48.31
10474;BME280;5284;50.446;7.904;2023-03-01T16:12:16;98940.84;;;6.77;48.77
10474;BME280;5284;50.446;7.904;2023-03-01T16:17:22;98945.31;;;6.63;49.83
10474;BME280;5284;50.446;7.904;2023-03-01T16:22:26;98939.47;;;6.44;50.37
10474;BME280;5284;50.446;7.904;2023-03-01T16:27:29;98938.53;;;6.31;50.15
10474;BME280;5284;50.446;7.904;2023-03-01T16:32:32;98940.44;;;6.15;51.25
10474;BME280;5284;50.446;7.904;2023-03-01T16:37:39;98944.38;;;6.08;50.96
10474;BME280;5284;50.446;7.904;2023-03-01T16:42:44;98949.84;;;5.91;51.27
10474;BME280;5284;50.446;7.904;2023-03-01T16:47:48;98949.75;;;5.77;51.41
10474;BME280;5284;50.446;7.904;2023-03-01T16:52:52;98955.22;;;5.60;52.48
10474;BME280;5284;50.446;7.904;2023-03-01T16:57:55;98959.22;;;5.52;52.57
10474;BME280;5284;50.446;7.904;2023-03-01T17:02:58;98965.66;;;5.32;52.89
10474;BME280;5284;50.446;7.904;2023-03-01T17:08:04;98965.16;;;5.26;53.50
10474;BME280;5284;50.446;7.904;2023-03-01T17:13:08;98968.75;;;5.09;53.43
10474;BME280;5284;50.446;7.904;2023-03-01T17:18:11;98967.00;;;4.94;53.72
10474;BME280;5284;50.446;7.904;2023-03-01T17:23:16;98973.72;;;4.84;53.27
10474;BME280;5284;50.446;7.904;2023-03-01T17:28:19;98976.19;;;4.72;53.85
10474;BME280;5284;50.446;7.904;2023-03-01T17:33:22;98976.69;;;4.63;54.35
10474;BME280;5284;50.446;7.904;2023-03-01T17:38:27;98983.56;;;4.50;54.58
10474;BME280;5284;50.446;7.904;2023-03-01T17:43:30;98983.81;;;4.46;54.30
10474;BME280;5284;50.446;7.904;2023-03-01T17:48:35;98987.03;;;4.35;54.92
10474;BME280;5284;50.446;7.904;2023-03-01T17:53:40;98983.69;;;4.32;55.65
10474;BME280;5284;50.446;7.904;2023-03-01T17:58:43;98982.47;;;4.22;55.75
10474;BME280;5284;50.446;7.904;2023-03-01T18:03:49;98978.31;;;4.18;55.93
10474;BME280;5284;50.446;7.904;2023-03-01T18:08:54;98984.13;;;4.07;56.52
10474;BME280;5284;50.446;7.904;2023-03-01T18:13:57;98983.84;;;3.96;56.28
10474;BME280;5284;50.446;7.904;2023-03-01T18:19:01;98991.00;;;3.94;56.67
10474;BME280;5284;50.446;7.904;2023-03-01T18:24:05;98990.59;;;3.85;56.76
10474;BME280;5284;50.446;7.904;2023-03-01T18:29:09;98979.50;;;3.78;57.63
10474;BME280;5284;50.446;7.904;2023-03-01T18:34:13;98981.59;;;3.72;57.83
10474;BME280;5284;50.446;7.904;2023-03-01T18:39:19;98973.06;;;3.67;58.14
10474;BME280;5284;50.446;7.904;2023-03-01T18:44:23;98975.69;;;3.67;57.86
10474;BME280;5284;50.446;7.904;2023-03-01T18:49:26;98976.00;;;3.61;58.74
10474;BME280;5284;50.446;7.904;2023-03-01T18:54:31;98977.25;;;3.54;58.78
10474;BME280;5284;50.446;7.904;2023-03-01T18:59:36;98975.47;;;3.54;58.74
10474;BME280;5284;50.446;7.904;2023-03-01T19:04:38;98959.94;;;3.48;58.77
10474;BME280;5284;50.446;7.904;2023-03-01T19:09:43;98954.00;;;3.45;58.63
10474;BME280;5284;50.446;7.904;2023-03-01T19:14:46;98941.03;;;3.40;58.86
10474;BME280;5284;50.446;7.904;2023-03-01T19:19:49;98935.31;;;3.32;59.18
10474;BME280;5284;50.446;7.904;2023-03-01T19:24:53;98935.38;;;3.31;59.16
10474;BME280;5284;50.446;7.904;2023-03-01T19:29:56;98926.22;;;3.21;59.44
10474;BME280;5284;50.446;7.904;2023-03-01T19:34:58;98926.38;;;3.18;59.71
10474;BME280;5284;50.446;7.904;2023-03-01T19:40:04;98937.06;;;3.15;59.65
10474;BME280;5284;50.446;7.904;2023-03-01T19:45:08;98926.75;;;3.10;59.02
10474;BME280;5284;50.446;7.904;2023-03-01T19:50:12;98933.97;;;3.07;59.71
10474;BME280;5284;50.446;7.904;2023-03-01T19:55:18;98941.00;;;3.06;59.08
10474;BME280;5284;50.446;7.904;2023-03-01T20:00:23;98938.66;;;3.00;59.47
10474;BME280;5284;50.446;7.904;2023-03-01T20:05:25;98938.56;;;3.02;58.82
10474;BME280;5284;50.446;7.904;2023-03-01T20:10:31;98929.28;;;2.95;59.29
10474;BME280;5284;50.446;7.904;2023-03-01T20:15:36;98940.13;;;2.89;59.41
10474;BME280;5284;50.446;7.904;2023-03-01T20:20:41;98947.75;;;2.77;60.33
10474;BME280;5284;50.446;7.904;2023-03-01T20:25:46;98959.41;;;2.71;61.28
10474;BME280;5284;50.446;7.904;2023-03-01T20:30:50;98969.16;;;2.69;60.72
10474;BME280;5284;50.446;7.904;2023-03-01T20:35:54;98961.06;;;2.55;61.62
10474;BME280;5284;50.446;7.904;2023-03-01T20:40:59;98964.03;;;2.48;62.25
10474;BME280;5284;50.446;7.904;2023-03-01T20:46:03;98966.25;;;2.38;62.89
10474;BME280;5284;50.446;7.904;2023-03-01T20:51:08;98964.75;;;2.33;62.89
10474;BME280;5284;50.446;7.904;2023-03-01T20:56:13;98960.47;;;2.30;63.19
10474;BME280;5284;50.446;7.904;2023-03-01T21:01:35;98947.59;;;2.24;63.93
10474;BME280;5284;50.446;7.904;2023-03-01T21:06:38;98949.72;;;2.16;64.34
10474;BME280;5284;50.446;7.904;2023-03-01T21:11:44;98946.47;;;2.30;62.81
10474;BME280;5284;50.446;7.904;2023-03-01T21:16:47;98955.50;;;2.24;63.63
10474;BME280;5284;50.446;7.904;2023-03-01T21:21:51;98958.31;;;2.20;64.62
10474;BME280;5284;50.446;7.904;2023-03-01T21:26:55;98951.50;;;2.16;64.93
10474;BME280;5284;50.446;7.904;2023-03-01T21:31:59;98948.09;;;2.14;65.71
10474;BME280;5284;50.446;7.904;2023-03-01T21:37:06;98948.16;;;2.12;64.80
10474;BME280;5284;50.446;7.904;2023-03-01T21:42:10;98946.75;;;2.05;66.10
10474;BME280;5284;50.446;7.904;2023-03-01T21:47:13;98945.28;;;1.98;67.73
10474;BME280;5284;50.446;7.904;2023-03-01T21:52:16;98940.25;;;1.94;68.06
10474;BME280;5284;50.446;7.904;2023-03-01T21:57:20;98935.81;;;1.94;68.06
10474;BME280;5284;50.446;7.904;2023-03-01T22:02:23;98942.94;;;1.92;68.53
10474;BME280;5284;50.446;7.904;2023-03-01T22:07:26;98937.09;;;1.86;69.35
10474;BME280;5284;50.446;7.904;2023-03-01T22:12:30;98943.34;;;1.83;70.15
10474;BME280;5284;50.446;7.904;2023-03-01T22:17:33;98941.56;;;1.84;70.61
10474;BME280;5284;50.446;7.904;2023-03-01T22:22:37;98943.66;;;1.76;72.62
10474;BME280;5284;50.446;7.904;2023-03-01T22:27:41;98940.41;;;1.71;73.24
10474;BME280;5284;50.446;7.904;2023-03-01T22:32:44;98934.41;;;1.67;73.34
10474;BME280;5284;50.446;7.904;2023-03-01T22:37:47;98934.69;;;1.61;74.89
10474;BME280;5284;50.446;7.904;2023-03-01T22:42:51;98936.78;;;1.53;76.83
10474;BME280;5284;50.446;7.904;2023-03-01T22:47:54;98936.97;;;1.49;77.60
10474;BME280;5284;50.446;7.904;2023-03-01T22:52:58;98938.94;;;1.44;77.79
10474;BME280;5284;50.446;7.904;2023-03-01T22:58:03;98940.91;;;1.39;78.09
10474;BME280;5284;50.446;7.904;2023-03-01T23:03:07;98936.44;;;1.41;78.38
10474;BME280;5284;50.446;7.904;2023-03-01T23:08:10;98927.72;;;1.41;79.21
10474;BME280;5284;50.446;7.904;2023-03-01T23:13:14;98933.22;;;1.35;79.89
10474;BME280;5284;50.446;7.904;2023-03-01T23:18:17;98927.31;;;1.30;80.37
10474;BME280;5284;50.446;7.904;2023-03-01T23:23:20;98929.28;;;1.25;81.75
10474;BME280;5284;50.446;7.904;2023-03-01T23:28:25;98933.81;;;1.21;82.78
10474;BME280;5284;50.446;7.904;2023-03-01T23:33:29;98922.97;;;1.09;84.61
10474;BME280;5284;50.446;7.904;2023-03-01T23:38:38;98919.88;;;0.99;85.32
10474;BME280;5284;50.446;7.904;2023-03-01T23:43:44;98925.53;;;0.89;86.92
10474;BME280;5284;50.446;7.904;2023-03-01T23:48:47;98911.88;;;0.81;88.40
10474;BME280;5284;50.446;7.904;2023-03-01T23:53:53;98906.91;;;0.75;89.01
10474;BME280;5284;50.446;7.904;2023-03-01T23:59:02;98908.03;;;0.68;89.43
